createdAt,value
2022-10-02T00:00:02.698Z,94.60
2022-10-02T00:02:42.778Z,94.50
2022-10-02T00:05:15.841Z,94.70
2022-10-02T00:07:54.513Z,94.90
2022-10-02T00:10:36.286Z,94.60
2022-10-02T00:13:12.358Z,94.60
2022-10-02T00:15:42.406Z,94.60
2022-10-02T00:18:16.103Z,94.70
2022-10-02T00:20:58.115Z,94.60
2022-10-02T00:23:36.735Z,94.60
2022-10-02T00:26:07.593Z,94.70
2022-10-02T00:29:01.378Z,94.70
2022-10-02T00:31:41.775Z,94.80
2022-10-02T00:34:30.906Z,94.90
2022-10-02T00:37:19.771Z,94.90
2022-10-02T00:39:55.871Z,94.90
2022-10-02T00:42:44.177Z,95.00
2022-10-02T00:45:39.048Z,95.00
2022-10-02T00:48:27.264Z,95.00
2022-10-02T00:51:03.219Z,95.40
2022-10-02T00:53:33.049Z,95.10
2022-10-02T00:56:25.037Z,95.20
2022-10-02T00:59:13.739Z,95.20
2022-10-02T01:01:53.390Z,95.20
2022-10-02T01:04:40.631Z,95.20
2022-10-02T01:07:12.854Z,95.20
2022-10-02T01:09:41.971Z,95.30
2022-10-02T01:12:10.218Z,95.30
2022-10-02T01:14:39.993Z,95.30
2022-10-02T01:17:24.363Z,95.30
2022-10-02T01:19:51.995Z,95.20
2022-10-02T01:22:46.649Z,95.20
2022-10-02T01:25:16.481Z,95.20
2022-10-02T01:27:44.129Z,95.20
2022-10-02T01:30:15.687Z,95.30
2022-10-02T01:32:56.229Z,95.20
2022-10-02T01:35:27.960Z,95.20
2022-10-02T01:37:55.806Z,95.30
2022-10-02T01:40:29.627Z,95.30
2022-10-02T01:43:00.703Z,95.40
2022-10-02T01:45:56.444Z,95.30
2022-10-02T01:48:35.448Z,95.20
2022-10-02T01:51:46.772Z,95.10
2022-10-02T01:54:34.933Z,95.00
2022-10-02T01:57:20.156Z,95.00
2022-10-02T01:59:56.477Z,94.90
2022-10-02T02:02:33.968Z,94.90
2022-10-02T02:05:25.168Z,95.00
2022-10-02T02:08:08.300Z,95.00
2022-10-02T02:10:53.566Z,95.00
2022-10-02T02:13:34.505Z,95.00
2022-10-02T02:16:33.922Z,95.00
2022-10-02T02:19:04.303Z,95.00
2022-10-02T02:21:35.920Z,95.00
2022-10-02T02:24:10.203Z,95.10
2022-10-02T02:26:39.319Z,95.10
2022-10-02T02:29:08.831Z,95.10
2022-10-02T02:31:59.076Z,95.10
2022-10-02T02:34:33.778Z,95.20
2022-10-02T02:37:07.738Z,95.20
2022-10-02T02:39:52.773Z,95.20
2022-10-02T02:42:26.098Z,95.20
2022-10-02T02:45:14.271Z,95.30
2022-10-02T02:47:59.992Z,95.30
2022-10-02T02:50:29.958Z,95.30
2022-10-02T02:53:05.077Z,95.40
2022-10-02T02:55:42.766Z,95.40
2022-10-02T02:58:35.146Z,95.40
2022-10-02T03:01:02.714Z,95.40
2022-10-02T03:03:29.855Z,95.40
2022-10-02T03:06:03.437Z,95.50
2022-10-02T03:08:35.487Z,95.60
2022-10-02T03:11:25.281Z,95.60
2022-10-02T03:14:08.032Z,95.70
2022-10-02T03:16:58.498Z,95.70
2022-10-02T03:19:40.141Z,95.70
2022-10-02T03:22:30.448Z,95.70
2022-10-02T03:25:19.740Z,95.70
2022-10-02T03:27:53.233Z,95.80
2022-10-02T03:30:22.057Z,95.80
2022-10-02T03:32:56.414Z,95.90
2022-10-02T03:35:24.964Z,95.80
2022-10-02T03:37:59.063Z,95.90
2022-10-02T03:40:27.527Z,95.90
2022-10-02T03:42:58.463Z,96.00
2022-10-02T03:45:49.575Z,96.10
2022-10-02T03:48:15.040Z,96.10
2022-10-02T03:50:42.157Z,96.00
2022-10-02T03:53:25.103Z,96.00
2022-10-02T03:56:06.547Z,96.00
2022-10-02T03:58:34.580Z,96.00
2022-10-02T04:01:21.080Z,96.00
2022-10-02T04:03:52.757Z,96.00
2022-10-02T04:06:28.360Z,96.00
2022-10-02T04:09:04.856Z,96.00
2022-10-02T04:11:37.320Z,96.10
2022-10-02T04:14:09.734Z,96.10
2022-10-02T04:16:46.794Z,96.10
2022-10-02T04:19:33.707Z,96.10
2022-10-02T04:22:24.882Z,96.10
2022-10-02T04:25:00.429Z,96.20
2022-10-02T04:27:37.428Z,96.20
2022-10-02T04:30:08.188Z,96.10
2022-10-02T04:32:36.939Z,96.10
2022-10-02T04:35:14.741Z,96.10
2022-10-02T04:37:50.764Z,96.10
2022-10-02T04:40:43.772Z,96.10
2022-10-02T04:43:11.116Z,96.20
2022-10-02T04:45:55.861Z,96.30
2022-10-02T04:48:31.870Z,96.30
2022-10-02T04:51:25.636Z,96.30
2022-10-02T04:54:20.595Z,96.30
2022-10-02T04:57:05.706Z,96.30
2022-10-02T04:59:57.125Z,96.40
2022-10-02T05:02:36.081Z,96.40
2022-10-02T05:05:09.219Z,96.40
2022-10-02T05:08:03.658Z,96.40
2022-10-02T05:10:36.484Z,96.40
2022-10-02T05:13:12.535Z,96.70
2022-10-02T05:16:07.991Z,96.50
2022-10-02T05:18:50.400Z,96.50
2022-10-02T05:21:38.631Z,96.50
2022-10-02T05:24:21.433Z,96.60
2022-10-02T05:27:03.716Z,96.60
2022-10-02T05:30:12.965Z,96.70
2022-10-02T05:32:45.631Z,96.70
2022-10-02T05:35:26.985Z,96.60
2022-10-02T05:38:31.542Z,96.60
2022-10-02T05:41:18.272Z,96.60
2022-10-02T05:43:56.475Z,96.60
2022-10-02T05:46:30.151Z,96.60
2022-10-02T05:49:14.975Z,96.60
2022-10-02T05:52:01.795Z,96.60
2022-10-02T05:55:01.792Z,96.60
2022-10-02T05:58:10.283Z,96.60
2022-10-02T06:01:06.397Z,96.60
2022-10-02T06:03:45.727Z,96.60
2022-10-02T06:06:46.517Z,96.60
2022-10-02T06:09:31.836Z,96.60
2022-10-02T06:12:14.807Z,96.60
2022-10-02T06:14:59.313Z,96.60
2022-10-02T06:17:34.971Z,96.50
2022-10-02T06:20:05.027Z,96.40
2022-10-02T06:22:50.973Z,96.30
2022-10-02T06:25:28.649Z,96.20
2022-10-02T06:28:01.734Z,96.20
2022-10-02T06:30:33.024Z,96.20
2022-10-02T06:33:26.777Z,96.20
2022-10-02T06:35:54.139Z,96.20
2022-10-02T06:38:35.647Z,96.20
2022-10-02T06:41:45.756Z,96.20
2022-10-02T06:44:22.985Z,96.20
2022-10-02T06:47:08.436Z,96.20
2022-10-02T06:50:05.006Z,96.30
2022-10-02T06:52:53.631Z,96.30
2022-10-02T06:55:43.716Z,96.30
2022-10-02T06:58:26.968Z,96.30
2022-10-02T07:00:59.267Z,96.30
2022-10-02T07:04:04.355Z,96.40
2022-10-02T07:06:53.320Z,96.40
2022-10-02T07:09:45.154Z,96.40
2022-10-02T07:12:40.377Z,96.40
2022-10-02T07:15:32.612Z,96.40
2022-10-02T07:18:19.662Z,96.30
2022-10-02T07:21:08.025Z,96.30
2022-10-02T07:24:02.570Z,96.30
2022-10-02T07:26:43.215Z,96.30
2022-10-02T07:29:16.952Z,96.30
2022-10-02T07:32:17.690Z,96.30
2022-10-02T07:35:05.785Z,96.20
2022-10-02T07:37:50.576Z,96.30
2022-10-02T07:41:07.366Z,96.30
2022-10-02T07:44:04.248Z,96.30
2022-10-02T07:46:37.421Z,96.30
2022-10-02T07:49:24.553Z,96.30
2022-10-02T07:52:22.884Z,96.30
2022-10-02T07:55:05.045Z,96.30
2022-10-02T07:57:46.119Z,96.30
2022-10-02T08:00:24.162Z,96.30
2022-10-02T08:03:12.702Z,96.30
2022-10-02T08:05:49.672Z,96.30
2022-10-02T08:08:21.288Z,96.30
2022-10-02T08:10:56.528Z,96.30
2022-10-02T08:13:39.929Z,96.30
2022-10-02T08:16:09.286Z,96.30
2022-10-02T08:18:49.186Z,96.30
2022-10-02T08:21:23.185Z,96.20
2022-10-02T08:24:10.129Z,96.20
2022-10-02T08:26:46.393Z,96.20
2022-10-02T08:29:26.637Z,96.20
2022-10-02T08:31:54.564Z,96.10
2022-10-02T08:34:23.830Z,96.10
2022-10-02T08:37:00.524Z,96.00
2022-10-02T08:39:30.423Z,96.00
2022-10-02T08:42:33.364Z,96.00
2022-10-02T08:45:34.337Z,96.00
2022-10-02T08:48:26.800Z,95.90
2022-10-02T08:51:15.153Z,95.90
2022-10-02T08:54:00.753Z,95.90
2022-10-02T08:56:59.666Z,96.00
2022-10-02T08:59:42.483Z,95.90
2022-10-02T09:02:51.135Z,95.90
2022-10-02T09:05:45.331Z,95.80
2022-10-02T09:08:37.008Z,95.70
2022-10-02T09:11:37.400Z,95.70
2022-10-02T09:14:26.192Z,95.50
2022-10-02T09:17:13.813Z,95.50
2022-10-02T09:20:05.015Z,95.40
2022-10-02T09:22:50.902Z,95.40
2022-10-02T09:25:55.406Z,95.30
2022-10-02T09:28:34.956Z,95.30
2022-10-02T09:31:40.394Z,95.30
2022-10-02T09:34:26.598Z,95.20
2022-10-02T09:37:06.786Z,95.20
2022-10-02T09:39:51.744Z,95.10
2022-10-02T09:42:43.613Z,95.00
2022-10-02T09:45:37.963Z,95.00
2022-10-02T09:48:24.007Z,94.90
2022-10-02T09:51:28.763Z,94.80
2022-10-02T09:54:15.507Z,94.70
2022-10-02T09:57:19.884Z,94.60
2022-10-02T10:00:13.038Z,94.50
2022-10-02T10:02:49.359Z,94.70
2022-10-02T10:05:39.439Z,94.20
2022-10-02T10:08:22.426Z,94.20
2022-10-02T10:11:29.260Z,94.00
2022-10-02T10:14:24.741Z,93.80
2022-10-02T10:17:39.362Z,93.70
2022-10-02T10:20:23.082Z,93.20
2022-10-02T10:23:12.607Z,92.30
2022-10-02T10:26:15.342Z,92.30
2022-10-02T10:29:27.006Z,91.80
2022-10-02T10:31:56.989Z,91.70
2022-10-02T10:34:32.725Z,92.10
2022-10-02T10:37:29.421Z,91.70
2022-10-02T10:40:15.740Z,91.80
2022-10-02T10:43:06.984Z,91.50
2022-10-02T10:45:57.229Z,91.20
2022-10-02T10:48:27.695Z,91.20
2022-10-02T10:51:01.027Z,91.10
2022-10-02T10:53:51.668Z,90.50
2022-10-02T10:56:37.194Z,90.80
2022-10-02T10:59:32.442Z,90.60
2022-10-02T11:02:18.398Z,90.40
2022-10-02T11:05:07.744Z,90.40
2022-10-02T11:07:43.024Z,90.40
2022-10-02T11:10:38.472Z,89.50
2022-10-02T11:13:35.795Z,89.80
2022-10-02T11:16:06.688Z,89.90
2022-10-02T11:18:43.016Z,88.80
2022-10-02T11:21:29.096Z,88.50
2022-10-02T11:24:06.217Z,88.50
2022-10-02T11:26:54.929Z,88.10
2022-10-02T11:29:37.024Z,88.60
2022-10-02T11:32:23.254Z,88.40
2022-10-02T11:35:01.992Z,88.20
2022-10-02T11:37:31.805Z,87.20
2022-10-02T11:39:58.849Z,87.20
2022-10-02T11:42:56.717Z,87.10
2022-10-02T11:46:01.514Z,86.10
2022-10-02T11:49:00.053Z,86.40
2022-10-02T11:51:59.595Z,86.40
2022-10-02T11:54:56.471Z,85.30
2022-10-02T11:57:52.192Z,85.90
2022-10-02T12:00:55.636Z,86.10
2022-10-02T12:03:49.182Z,86.40
2022-10-02T12:06:54.131Z,86.10
2022-10-02T12:10:00.912Z,86.30
2022-10-02T12:13:07.429Z,86.90
2022-10-02T12:15:48.982Z,87.10
2022-10-02T12:18:39.500Z,86.70
2022-10-02T12:21:40.421Z,85.60
2022-10-02T12:24:35.341Z,84.10
2022-10-02T12:27:37.793Z,84.10
2022-10-02T12:30:36.271Z,84.50
2022-10-02T12:33:13.599Z,85.30
2022-10-02T12:36:16.193Z,85.10
2022-10-02T12:39:16.733Z,84.20
2022-10-02T12:42:06.643Z,83.10
2022-10-02T12:45:12.010Z,83.40
2022-10-02T12:48:10.891Z,82.70
2022-10-02T12:51:12.738Z,82.50
2022-10-02T12:54:14.731Z,82.20
2022-10-02T12:57:53.911Z,82.80
2022-10-02T13:00:43.520Z,82.50
2022-10-02T13:03:33.586Z,81.70
2022-10-02T13:06:18.763Z,81.70
2022-10-02T13:09:10.957Z,81.60
2022-10-02T13:11:38.390Z,81.90
2022-10-02T13:14:30.131Z,82.00
2022-10-02T13:17:09.834Z,82.40
2022-10-02T13:20:15.036Z,82.20
2022-10-02T13:23:09.466Z,81.30
2022-10-02T13:25:57.458Z,81.70
2022-10-02T13:28:48.539Z,81.20
2022-10-02T13:31:44.474Z,80.00
2022-10-02T13:34:34.116Z,79.90
2022-10-02T13:37:38.498Z,78.90
2022-10-02T13:40:42.615Z,77.50
2022-10-02T13:43:31.699Z,76.70
2022-10-02T13:53:08.539Z,77.40
2022-10-02T13:56:06.974Z,78.30
2022-10-02T13:58:36.863Z,78.50
2022-10-02T14:01:15.486Z,78.20
2022-10-02T14:04:01.067Z,77.90
2022-10-02T14:06:55.986Z,77.90
2022-10-02T14:09:59.836Z,77.70
2022-10-02T14:13:06.554Z,76.70
2022-10-02T14:16:02.515Z,76.60
2022-10-02T14:19:01.249Z,76.20
2022-10-02T14:21:38.839Z,75.20
2022-10-02T14:25:04.340Z,75.30
2022-10-02T14:27:50.448Z,74.80
2022-10-02T14:30:23.472Z,74.80
2022-10-02T14:33:02.439Z,75.60
2022-10-02T14:35:51.995Z,75.70
2022-10-02T14:38:22.193Z,75.70
2022-10-02T14:41:02.268Z,76.00
2022-10-02T14:43:38.360Z,75.90
2022-10-02T14:46:24.684Z,76.60
2022-10-02T14:49:00.776Z,76.90
2022-10-02T14:51:48.301Z,76.20
2022-10-02T14:54:34.640Z,75.40
2022-10-02T14:57:20.283Z,75.90
2022-10-02T14:59:56.352Z,75.80
2022-10-02T15:02:50.735Z,76.30
2022-10-02T15:05:45.511Z,75.30
2022-10-02T15:08:20.415Z,75.60
2022-10-02T15:10:49.498Z,75.80
2022-10-02T15:13:46.605Z,76.30
2022-10-02T15:16:45.858Z,76.50
2022-10-02T15:19:30.554Z,76.90
2022-10-02T15:22:03.372Z,76.70
2022-10-02T15:24:32.140Z,77.30
2022-10-02T15:27:14.763Z,77.70
2022-10-02T15:30:29.143Z,78.10
2022-10-02T15:33:01.821Z,77.50
2022-10-02T15:35:39.491Z,77.30
2022-10-02T15:38:39.831Z,76.80
2022-10-02T15:41:19.830Z,77.40
2022-10-02T15:44:25.978Z,77.20
2022-10-02T15:47:45.485Z,76.60
2022-10-02T15:50:34.698Z,77.10
2022-10-02T15:53:48.371Z,76.60
2022-10-02T15:56:28.122Z,75.70
2022-10-02T15:59:23.754Z,75.80
2022-10-02T16:02:03.933Z,76.20
2022-10-02T16:04:40.457Z,76.80
2022-10-02T16:07:32.968Z,77.00
2022-10-02T16:10:17.896Z,77.40
2022-10-02T16:13:24.672Z,77.80
2022-10-02T16:16:22.973Z,78.00
2022-10-02T16:19:16.081Z,77.90
2022-10-02T16:22:17.976Z,78.20
2022-10-02T16:25:13.222Z,78.40
2022-10-02T16:28:02.397Z,78.60
2022-10-02T16:30:56.304Z,78.90
2022-10-02T16:33:51.649Z,79.20
2022-10-02T16:36:31.928Z,79.50
2022-10-02T16:39:26.633Z,79.90
2022-10-02T16:42:02.552Z,80.00
2022-10-02T16:45:05.288Z,80.20
2022-10-02T16:48:07.822Z,80.50
2022-10-02T16:51:15.110Z,80.90
2022-10-02T16:53:51.861Z,81.20
2022-10-02T16:56:40.717Z,81.40
2022-10-02T16:59:17.597Z,81.70
2022-10-02T17:02:16.470Z,81.80
2022-10-02T17:05:04.492Z,82.00
2022-10-02T17:07:38.655Z,82.30
2022-10-02T17:10:33.836Z,82.40
2022-10-02T17:13:27.551Z,82.30
2022-10-02T17:15:59.144Z,82.60
2022-10-02T17:18:55.886Z,82.90
2022-10-02T17:21:29.551Z,83.00
2022-10-02T17:24:34.458Z,83.40
2022-10-02T17:27:12.011Z,83.30
2022-10-02T17:29:53.306Z,83.50
2022-10-02T17:32:48.537Z,83.80
2022-10-02T17:35:43.971Z,84.00
2022-10-02T17:38:37.435Z,84.30
2022-10-02T17:41:29.531Z,84.40
2022-10-02T17:44:26.705Z,84.60
2022-10-02T17:47:10.997Z,84.80
2022-10-02T17:49:59.842Z,84.90
2022-10-02T17:53:02.600Z,85.00
2022-10-02T17:56:20.003Z,84.90
2022-10-02T17:59:18.605Z,85.00
2022-10-02T18:02:24.363Z,85.00
2022-10-02T18:05:24.306Z,85.10
2022-10-02T18:08:12.841Z,85.10
2022-10-02T18:11:03.741Z,85.70
2022-10-02T18:13:49.793Z,85.40
2022-10-02T18:16:45.170Z,85.60
2022-10-02T18:19:24.069Z,85.60
2022-10-02T18:22:16.300Z,86.00
2022-10-02T18:25:12.470Z,86.00
2022-10-02T18:28:21.628Z,86.00
2022-10-02T18:30:54.891Z,86.10
2022-10-02T18:34:06.977Z,86.20
2022-10-02T18:37:01.254Z,86.20
2022-10-02T18:39:51.796Z,86.50
2022-10-02T18:42:51.323Z,86.60
2022-10-02T18:45:42.852Z,86.80
2022-10-02T18:48:31.589Z,87.00
2022-10-02T18:51:17.657Z,87.20
2022-10-02T18:53:53.968Z,87.20
2022-10-02T18:56:56.160Z,87.40
2022-10-02T19:00:00.531Z,87.60
2022-10-02T19:02:40.664Z,87.80
2022-10-02T19:05:41.826Z,87.90
2022-10-02T19:08:29.303Z,87.90
2022-10-02T19:10:56.920Z,88.20
2022-10-02T19:13:29.091Z,88.40
2022-10-02T19:16:01.867Z,88.60
2022-10-02T19:18:31.172Z,88.80
2022-10-02T19:21:06.834Z,88.90
2022-10-02T19:24:15.128Z,89.00
2022-10-02T19:26:52.006Z,89.10
2022-10-02T19:29:42.083Z,89.30
2022-10-02T19:32:19.187Z,89.30
2022-10-02T19:34:52.105Z,89.40
2022-10-02T19:37:19.647Z,89.70
2022-10-02T19:39:56.287Z,89.60
2022-10-02T19:42:28.869Z,89.70
2022-10-02T19:45:03.302Z,89.90
2022-10-02T19:47:49.631Z,90.10
2022-10-02T19:50:23.357Z,90.00
2022-10-02T19:53:06.777Z,90.10
2022-10-02T19:55:38.939Z,90.10
2022-10-02T19:58:44.543Z,90.20
2022-10-02T20:01:25.432Z,90.20
2022-10-02T20:03:58.402Z,90.30
2022-10-02T20:06:32.031Z,90.40
2022-10-02T20:09:15.079Z,90.40
2022-10-02T20:12:01.630Z,90.40
2022-10-02T20:14:57.490Z,90.50
2022-10-02T20:17:25.052Z,90.50
2022-10-02T20:20:02.764Z,90.60
2022-10-02T20:23:04.342Z,90.60
2022-10-02T20:25:42.322Z,90.60
2022-10-02T20:28:41.639Z,90.60
2022-10-02T20:31:19.360Z,90.70
2022-10-02T20:33:58.129Z,90.80
2022-10-02T20:36:33.069Z,90.80
2022-10-02T20:39:09.924Z,91.00
2022-10-02T20:41:52.343Z,91.00
2022-10-02T20:44:20.838Z,91.00
2022-10-02T20:47:06.266Z,91.10
2022-10-02T20:50:12.516Z,91.00
2022-10-02T20:53:07.207Z,91.00
2022-10-02T20:55:53.817Z,91.00
2022-10-02T20:58:55.027Z,91.10
2022-10-02T21:01:55.819Z,91.10
2022-10-02T21:04:26.553Z,91.20
2022-10-02T21:07:35.233Z,91.20
2022-10-02T21:10:23.248Z,91.20
2022-10-02T21:13:08.428Z,91.20
2022-10-02T21:16:07.694Z,91.20
2022-10-02T21:18:39.582Z,91.20
2022-10-02T21:21:25.349Z,91.30
2022-10-02T21:24:43.413Z,91.30
2022-10-02T21:27:32.012Z,91.30
2022-10-02T21:30:11.985Z,91.40
2022-10-02T21:33:24.748Z,91.40
2022-10-02T21:36:31.408Z,91.40
2022-10-02T21:38:58.358Z,91.50
2022-10-02T21:41:58.193Z,91.60
2022-10-02T21:44:59.239Z,91.60
2022-10-02T21:48:06.845Z,91.60
2022-10-02T21:50:40.283Z,91.60
2022-10-02T21:53:51.191Z,91.60
2022-10-02T21:56:38.721Z,91.70
2022-10-02T21:59:29.825Z,91.80
2022-10-02T22:02:28.245Z,91.90
2022-10-02T22:05:01.396Z,91.90
2022-10-02T22:07:39.960Z,92.00
2022-10-02T22:10:27.597Z,92.00
2022-10-02T22:13:15.401Z,92.10
2022-10-02T22:16:23.323Z,92.10
2022-10-02T22:19:08.507Z,92.20
2022-10-02T22:21:49.948Z,92.20
2022-10-02T22:24:35.521Z,92.30
2022-10-02T22:27:45.512Z,92.20
2022-10-02T22:30:50.975Z,92.30
2022-10-02T22:33:40.467Z,92.30
2022-10-02T22:36:32.171Z,92.30
2022-10-02T22:39:31.490Z,92.30
2022-10-02T22:42:26.753Z,92.40
2022-10-02T22:44:59.962Z,92.40
2022-10-02T22:47:30.319Z,92.40
2022-10-02T22:50:13.373Z,92.50
2022-10-02T22:52:59.662Z,92.60
2022-10-02T22:55:34.307Z,92.60
2022-10-02T22:58:12.458Z,92.60
2022-10-02T23:01:04.484Z,92.70
2022-10-02T23:03:47.982Z,92.70
2022-10-02T23:06:22.954Z,92.70
2022-10-02T23:08:58.660Z,92.80
2022-10-02T23:11:32.580Z,92.80
2022-10-02T23:14:07.313Z,92.80
2022-10-02T23:16:49.140Z,92.80
2022-10-02T23:19:32.712Z,92.90
2022-10-02T23:22:05.255Z,92.90
2022-10-02T23:24:36.032Z,92.90
2022-10-02T23:27:03.269Z,92.90
2022-10-02T23:29:52.226Z,93.00
2022-10-02T23:32:28.101Z,93.00
2022-10-02T23:35:14.596Z,93.00
2022-10-02T23:38:00.479Z,93.00
2022-10-02T23:40:52.812Z,93.00
2022-10-02T23:43:28.433Z,93.10
2022-10-02T23:46:10.994Z,93.10
2022-10-02T23:48:39.297Z,93.20
2022-10-02T23:51:28.112Z,93.20
2022-10-02T23:54:19.950Z,93.20
2022-10-02T23:56:50.000Z,93.20
2022-10-02T23:59:38.398Z,93.20
